Time;durP1;ratioP1;P1;durP2;ratioP2;P2;SDS_P1;SDS_P2;PMS_P1;PMS_P2;Temp;Humidity;BMP_temperature;BMP_pressure;BME280_temperature;BME280_humidity;BME280_pressure;Samples;Min_cycle;Max_cycle;Signal;HPM_P1;HPM_P2
2021/11/25 00:00:32;;;;;;;13.32;6.70;;;3.40;67.40;;;;;;2320335;54;20988;-70
2021/11/25 00:03:01;;;;;;;15.60;7.65;;;3.40;67.50;;;;;;2585815;53;21021;-70
2021/11/25 00:09:07;;;;;;;15.60;7.47;;;3.40;67.50;;;;;;2572159;53;21019;-70
2021/11/25 00:11:34;;;;;;;18.37;8.65;;;3.30;67.40;;;;;;2304987;55;20991;-69
2021/11/25 00:14:01;;;;;;;16.95;8.10;;;3.30;67.30;;;;;;2573287;53;21018;-69
2021/11/25 00:16:30;;;;;;;16.77;7.82;;;3.30;67.20;;;;;;2305651;54;21752;-70
2021/11/25 00:22:27;;;;;;;15.20;6.25;;;3.20;67.10;;;;;;2572315;53;20966;-69
2021/11/25 00:28:33;;;;;;;15.90;7.28;;;3.10;67.00;;;;;;2567518;53;20935;-69
2021/11/25 00:34:39;;;;;;;12.85;6.15;;;3.10;67.00;;;;;;2563638;53;21126;-70
2021/11/25 00:37:06;;;;;;;16.35;7.78;;;3.00;67.00;;;;;;2563232;53;21045;-69
2021/11/25 00:39:35;;;;;;;13.23;5.75;;;3.00;67.10;;;;;;2544889;54;21042;-71
2021/11/25 00:42:19;;;;;;;12.82;6.57;;;3.00;67.10;;;;;;2581680;53;20977;-70
2021/11/25 00:44:47;;;;;;;15.77;7.30;;;2.90;67.10;;;;;;2588362;53;20941;-70
2021/11/25 00:47:13;;;;;;;15.90;7.47;;;2.90;67.90;;;;;;2341502;54;21005;-70
2021/11/25 00:49:40;;;;;;;13.70;6.90;;;2.90;67.40;;;;;;2552358;53;21827;-70
2021/11/25 00:52:06;;;;;;;15.80;7.18;;;2.90;67.50;;;;;;2584176;53;20996;-69
2021/11/25 00:54:34;;;;;;;14.50;6.90;;;2.80;67.50;;;;;;2587467;53;20986;-69
2021/11/25 00:57:01;;;;;;;13.32;6.55;;;2.80;67.50;;;;;;2335661;54;20941;-69
2021/11/25 00:59:27;;;;;;;15.65;7.37;;;2.80;67.60;;;;;;2580191;53;21136;-70
2021/11/25 01:01:53;;;;;;;14.85;6.82;;;2.80;67.50;;;;;;2342006;54;21004;-69
2021/11/25 01:04:23;;;;;;;15.65;7.20;;;2.80;67.40;;;;;;2578809;53;21031;-70
2021/11/25 01:07:20;;;;;;;17.45;8.02;;;2.80;67.30;;;;;;2528696;53;21711;-69
2021/11/25 01:09:49;;;;;;;16.23;7.45;;;2.80;67.20;;;;;;2587962;53;20995;-69
2021/11/25 01:12:16;;;;;;;15.18;7.00;;;2.80;67.30;;;;;;2338215;54;21417;-69
2021/11/25 01:14:45;;;;;;;17.23;7.60;;;2.70;67.30;;;;;;2565510;53;21721;-69
2021/11/25 01:17:12;;;;;;;13.02;5.82;;;2.70;67.30;;;;;;2330456;54;21005;-69
2021/11/25 01:19:38;;;;;;;14.07;6.62;;;2.40;67.10;;;;;;2587130;53;20933;-70
2021/11/25 01:22:05;;;;;;;15.10;6.97;;;2.70;67.50;;;;;;2340445;54;21000;-71
2021/11/25 01:24:34;;;;;;;15.70;6.90;;;2.70;67.50;;;;;;2554943;53;21037;-70
2021/11/25 01:27:01;;;;;;;15.85;7.45;;;2.70;67.60;;;;;;2342338;54;21022;-68
2021/11/25 01:29:30;;;;;;;12.35;6.18;;;2.70;67.60;;;;;;2586647;53;20945;-68
2021/11/25 01:31:57;;;;;;;14.35;6.12;;;2.60;67.40;;;;;;2556970;53;20940;-70
2021/11/25 01:34:25;;;;;;;15.32;7.50;;;2.60;67.40;;;;;;2339420;54;21052;-68
2021/11/25 01:36:52;;;;;;;14.87;6.32;;;2.60;67.30;;;;;;2588286;53;21754;-71
2021/11/25 01:39:18;;;;;;;14.57;6.62;;;2.60;67.30;;;;;;2341819;54;21635;-69
2021/11/25 01:41:47;;;;;;;13.62;6.57;;;2.60;67.20;;;;;;2318626;54;21097;-71
2021/11/25 01:44:14;;;;;;;14.00;6.60;;;2.60;67.30;;;;;;2567843;53;20938;-71
2021/11/25 01:50:09;;;;;;;13.02;6.35;;;2.50;67.10;;;;;;2333345;54;21826;-67
2021/11/25 01:52:35;;;;;;;17.40;6.87;;;2.50;67.30;;;;;;2341007;54;20968;-70
2021/11/25 01:55:02;;;;;;;14.70;7.37;;;2.50;67.50;;;;;;2587224;53;20988;-68
2021/11/25 01:57:28;;;;;;;15.38;6.80;;;2.50;67.60;;;;;;2341779;54;20985;-69
2021/11/25 01:59:54;;;;;;;12.82;5.97;;;2.50;67.60;;;;;;2343282;54;20937;-70
2021/11/25 02:02:21;;;;;;;14.60;6.50;;;2.50;67.60;;;;;;2341389;54;22239;-70
2021/11/25 02:04:50;;;;;;;16.65;7.53;;;2.50;67.70;;;;;;2340745;54;20984;-71
2021/11/25 02:07:17;;;;;;;14.80;7.12;;;2.50;67.80;;;;;;2318912;54;21005;-71
2021/11/25 02:09:44;;;;;;;12.10;5.47;;;2.50;67.80;;;;;;2538801;53;20986;-71
2021/11/25 02:12:10;;;;;;;13.30;6.45;;;2.50;67.90;;;;;;2330339;54;20941;-69
2021/11/25 02:14:38;;;;;;;14.82;6.43;;;2.50;67.80;;;;;;2562816;53;20959;-71
2021/11/25 02:17:06;;;;;;;14.45;6.80;;;2.50;67.80;;;;;;2337717;54;20966;-71
2021/11/25 02:19:32;;;;;;;13.73;6.32;;;2.50;67.70;;;;;;2341990;54;20961;-68
2021/11/25 02:22:00;;;;;;;12.85;6.07;;;2.40;67.60;;;;;;2566495;53;20973;-70
2021/11/25 02:24:26;;;;;;;14.05;7.05;;;2.40;67.50;;;;;;2556084;53;20996;-69
2021/11/25 02:26:52;;;;;;;16.20;6.72;;;2.40;67.50;;;;;;2312229;54;22736;-70
2021/11/25 02:29:19;;;;;;;14.80;6.62;;;2.40;67.50;;;;;;2312840;54;20929;-69
2021/11/25 02:31:45;;;;;;;12.45;6.57;;;2.40;67.40;;;;;;2337957;54;21051;-71
2021/11/25 02:34:11;;;;;;;15.30;6.90;;;2.40;67.40;;;;;;2341710;54;20945;-68
2021/11/25 02:36:38;;;;;;;13.55;6.80;;;2.40;67.40;;;;;;2338502;54;20966;-68
2021/11/25 02:39:04;;;;;;;13.73;6.78;;;2.40;67.40;;;;;;2310636;54;20925;-68
2021/11/25 02:41:31;;;;;;;14.87;6.53;;;2.30;67.30;;;;;;2307130;54;21083;-70
2021/11/25 02:43:57;;;;;;;11.48;6.05;;;2.30;67.30;;;;;;2326731;54;21710;-68
2021/11/25 02:46:24;;;;;;;15.55;6.80;;;2.30;67.20;;;;;;2341390;54;21103;-69
2021/11/25 02:48:52;;;;;;;14.55;7.10;;;2.30;67.20;;;;;;2342322;54;21048;-71
2021/11/25 02:51:20;;;;;;;13.23;6.53;;;2.30;67.20;;;;;;2336600;54;20982;-69
2021/11/25 02:53:49;;;;;;;14.95;6.97;;;2.30;67.20;;;;;;2565575;53;21473;-70
2021/11/25 02:56:17;;;;;;;13.52;6.65;;;2.30;67.20;;;;;;2320349;54;20964;-70
2021/11/25 02:58:45;;;;;;;15.82;7.20;;;2.20;67.00;;;;;;2332815;54;20950;-69
2021/11/25 03:01:15;;;;;;;16.70;6.90;;;2.20;67.00;;;;;;2557686;53;21504;-70
2021/11/25 03:03:41;;;;;;;13.73;7.07;;;2.20;67.00;;;;;;2341693;54;21827;-69
2021/11/25 03:06:08;;;;;;;16.83;7.75;;;2.20;67.00;;;;;;2341960;54;21009;-69
2021/11/25 03:12:03;;;;;;;17.05;7.53;;;2.10;66.80;;;;;;2587162;53;20985;-71
2021/11/25 03:14:29;;;;;;;15.57;7.50;;;2.10;67.00;;;;;;2580044;53;21123;-69
2021/11/25 03:16:55;;;;;;;14.82;6.82;;;2.00;66.90;;;;;;2328175;54;20986;-70
2021/11/25 03:19:22;;;;;;;13.85;7.05;;;2.00;66.90;;;;;;2331695;54;20941;-70
2021/11/25 03:21:48;;;;;;;14.68;6.95;;;2.00;66.90;;;;;;2587773;53;21066;-70
2021/11/25 03:24:20;;;;;;;17.23;8.63;;;2.00;66.90;;;;;;2325296;54;20989;-71
2021/11/25 03:26:47;;;;;;;16.95;7.45;;;2.00;67.00;;;;;;2333599;54;21818;-69
2021/11/25 03:29:18;;;;;;;16.77;7.87;;;2.00;67.10;;;;;;2588030;53;21120;-69
2021/11/25 03:31:48;;;;;;;18.23;8.55;;;2.00;67.10;;;;;;2342168;54;20937;-69
2021/11/25 03:34:15;;;;;;;23.10;9.63;;;1.90;67.10;;;;;;2580631;53;20954;-71
2021/11/25 03:36:41;;;;;;;21.08;9.30;;;1.90;67.10;;;;;;2310490;54;21010;-69
2021/11/25 03:39:08;;;;;;;17.55;8.05;;;1.90;67.10;;;;;;2315558;54;21015;-69
2021/11/25 03:41:35;;;;;;;16.30;7.80;;;1.90;67.20;;;;;;2555800;53;20919;-71
2021/11/25 03:44:01;;;;;;;15.82;7.55;;;1.90;67.10;;;;;;2319769;54;21015;-68
2021/11/25 03:46:30;;;;;;;16.15;7.60;;;1.90;67.10;;;;;;2583560;53;21806;-70
2021/11/25 03:48:57;;;;;;;17.27;7.65;;;1.90;67.10;;;;;;2587561;53;21056;-71
2021/11/25 03:51:23;;;;;;;16.45;7.20;;;1.80;66.90;;;;;;2583510;53;21004;-69
2021/11/25 03:54:18;;;;;;;16.00;7.90;;;1.80;66.80;;;;;;2338735;54;21030;-69
2021/11/25 03:56:50;;;;;;;15.52;7.22;;;1.80;66.70;;;;;;2541538;53;21025;-70
2021/11/25 04:02:44;;;;;;;13.43;6.15;;;1.60;66.70;;;;;;2563860;53;21030;-69
2021/11/25 04:05:11;;;;;;;13.82;6.55;;;1.70;66.80;;;;;;2319166;54;21025;-70
2021/11/25 04:07:37;;;;;;;13.60;6.80;;;1.70;66.90;;;;;;2548195;54;20956;-69
2021/11/25 04:10:05;;;;;;;14.27;7.35;;;1.70;66.80;;;;;;2316717;54;21119;-72
2021/11/25 04:12:34;;;;;;;17.77;7.57;;;1.70;66.90;;;;;;2587910;53;20996;-71
2021/11/25 04:15:05;;;;;;;15.55;7.87;;;1.70;66.90;;;;;;2588364;53;21751;-70
2021/11/25 04:17:31;;;;;;;14.85;7.25;;;1.70;66.90;;;;;;2341990;54;20960;-69
2021/11/25 04:19:58;;;;;;;15.25;7.22;;;1.70;66.90;;;;;;2555415;53;21494;-71
2021/11/25 04:22:24;;;;;;;14.40;7.35;;;1.60;66.80;;;;;;2333590;54;20957;-70
2021/11/25 04:24:57;;;;;;;13.00;6.87;;;1.60;66.80;;;;;;2541805;53;20942;-69
2021/11/25 04:27:24;;;;;;;15.23;7.68;;;1.60;66.90;;;;;;2329418;54;20945;-69
2021/11/25 04:30:00;;;;;;;15.25;7.53;;;1.60;66.90;;;;;;2323788;54;20914;-68
2021/11/25 04:38:21;;;;;;;15.35;7.37;;;1.60;66.90;;;;;;2329992;54;21036;-71
2021/11/25 04:43:41;;;;;;;19.98;9.20;;;1.60;66.90;;;;;;2300417;55;21048;-71
2021/11/25 04:46:31;;;;;;;14.75;6.43;;;1.50;66.70;;;;;;2333172;54;21084;-70
2021/11/25 04:48:58;;;;;;;16.80;7.62;;;1.50;66.50;;;;;;2547301;53;20974;-71
2021/11/25 04:51:25;;;;;;;15.90;7.30;;;1.50;66.50;;;;;;2563018;53;20933;-69
2021/11/25 04:53:51;;;;;;;14.52;6.90;;;1.50;66.70;;;;;;2333987;54;21041;-71
2021/11/25 05:06:17;;;;;;;13.98;6.00;;;1.50;66.80;;;;;;2561078;53;20932;-71
2021/11/25 05:08:46;;;;;;;11.32;4.95;;;1.40;66.30;;;;;;2552265;53;21023;-69
2021/11/25 05:11:59;;;;;;;;;;;;;;;;;;;;;
2021/11/25 05:18:14;;;;;;;12.13;5.57;;;1.30;66.60;;;;;;2549750;53;20989;-70
2021/11/25 05:20:41;;;;;;;14.68;7.03;;;1.30;66.70;;;;;;2306687;54;21041;-69
2021/11/25 05:26:58;;;;;;;14.68;6.72;;;1.20;66.70;;;;;;2581888;53;21532;-70
2021/11/25 05:29:28;;;;;;;16.90;7.75;;;1.20;66.70;;;;;;2302276;54;20981;-69
2021/11/25 05:31:55;;;;;;;15.32;6.95;;;1.20;66.80;;;;;;2541556;53;20933;-71
2021/11/25 05:34:49;;;;;;;;;;;;;;;;;;;;;
2021/11/25 05:37:45;;;;;;;18.87;8.73;;;1.20;66.80;;;;;;2307234;54;21026;-70
2021/11/25 06:08:21;;;;;;;13.50;6.37;;;1.20;67.00;;;;;;2223795;57;21089;-69
2021/11/25 06:10:48;;;;;;;16.08;7.10;;;1.20;67.30;;;;;;2246222;55;21038;-71
2021/11/25 06:13:18;;;;;;;17.90;8.32;;;1.10;67.60;;;;;;2514711;54;20971;-70
2021/11/25 06:16:29;;;;;;;19.45;8.82;;;1.10;67.80;;;;;;2313570;54;20961;-71
2021/11/25 06:19:00;;;;;;;18.73;9.45;;;1.20;68.00;;;;;;2301038;55;20998;-70
2021/11/25 06:21:41;;;;;;;18.83;8.55;;;1.20;68.10;;;;;;2319382;54;21166;-69
2021/11/25 06:25:07;;;;;;;19.60;9.40;;;1.20;68.40;;;;;;2548178;53;21156;-71
2021/11/25 06:27:34;;;;;;;19.42;9.82;;;1.30;68.50;;;;;;2540991;53;21871;-69
2021/11/25 06:30:02;;;;;;;21.00;10.77;;;1.30;68.60;;;;;;2318910;54;20964;-70
2021/11/25 06:32:31;;;;;;;21.10;10.63;;;1.40;68.80;;;;;;2313614;54;21040;-71
2021/11/25 06:34:58;;;;;;;23.20;11.10;;;1.40;68.80;;;;;;2537115;53;20999;-71
2021/11/25 06:37:25;;;;;;;22.87;11.05;;;1.50;68.90;;;;;;2315051;54;20997;-69
2021/11/25 06:39:55;;;;;;;23.80;12.13;;;1.50;69.00;;;;;;2319144;54;21683;-71
2021/11/25 06:42:22;;;;;;;30.95;14.40;;;1.60;69.10;;;;;;2542554;52;20959;-69
2021/11/25 06:44:48;;;;;;;28.70;13.68;;;1.60;69.10;;;;;;2307511;54;21040;-70
2021/11/25 06:47:17;;;;;;;24.30;12.52;;;1.70;69.20;;;;;;2533838;54;21457;-69
2021/11/25 06:49:48;;;;;;;40.78;16.55;;;1.70;69.20;;;;;;2286934;55;21518;-69
2021/11/25 06:52:14;;;;;;;28.67;13.30;;;1.80;69.30;;;;;;2314772;54;21029;-71
2021/11/25 06:54:40;;;;;;;26.33;12.95;;;1.80;69.20;;;;;;2548358;53;21068;-71
2021/11/25 06:57:07;;;;;;;24.27;12.68;;;2.00;69.30;;;;;;2512410;54;21008;-70
2021/11/25 06:59:34;;;;;;;23.33;11.35;;;1.90;69.10;;;;;;2536329;54;21014;-69
2021/11/25 07:02:00;;;;;;;23.27;11.50;;;2.00;69.20;;;;;;2513871;54;21058;-71
2021/11/25 07:04:28;;;;;;;24.58;11.10;;;2.00;69.20;;;;;;2304807;54;20978;-71
2021/11/25 07:06:54;;;;;;;19.73;10.15;;;2.10;69.30;;;;;;2537530;54;21520;-69
2021/11/25 07:09:24;;;;;;;22.37;10.77;;;2.10;69.30;;;;;;2280664;55;21011;-70
2021/11/25 07:11:51;;;;;;;25.88;12.37;;;2.10;69.30;;;;;;2519321;53;21004;-71
2021/11/25 07:14:17;;;;;;;20.42;10.20;;;2.20;69.40;;;;;;2535784;53;20960;-71
2021/11/25 07:16:47;;;;;;;26.05;12.60;;;2.20;69.40;;;;;;2533620;53;20984;-71
2021/11/25 07:19:13;;;;;;;24.37;11.77;;;2.20;69.30;;;;;;2564964;53;21795;-71
2021/11/25 07:21:42;;;;;;;24.40;11.07;;;2.30;69.40;;;;;;2310887;54;21829;-71
2021/11/25 07:24:12;;;;;;;22.45;11.23;;;2.40;69.50;;;;;;2527642;54;21008;-71
2021/11/25 07:26:38;;;;;;;26.65;12.73;;;2.40;69.40;;;;;;2523285;53;21027;-70
2021/11/25 07:29:07;;;;;;;24.73;13.23;;;2.50;69.40;;;;;;2310600;54;21035;-71
2021/11/25 07:31:34;;;;;;;26.52;12.52;;;2.50;69.30;;;;;;2290341;54;20956;-69
2021/11/25 07:34:00;;;;;;;24.75;12.45;;;2.50;69.20;;;;;;2312070;53;20960;-71
2021/11/25 07:36:27;;;;;;;23.50;11.63;;;2.60;69.30;;;;;;2308061;54;20979;-70
2021/11/25 07:38:53;;;;;;;24.85;12.00;;;2.60;69.20;;;;;;2314182;54;20988;-70
2021/11/25 07:41:20;;;;;;;24.98;12.23;;;2.60;69.30;;;;;;2545210;53;21930;-69
2021/11/25 07:43:49;;;;;;;27.30;13.35;;;2.60;69.30;;;;;;2300482;54;20993;-71
2021/11/25 07:46:15;;;;;;;25.17;11.95;;;2.70;69.40;;;;;;2542372;54;20935;-69
2021/11/25 07:48:44;;;;;;;23.15;11.40;;;2.70;69.40;;;;;;2311856;54;21883;-72
2021/11/25 07:51:10;;;;;;;26.08;11.57;;;2.70;69.40;;;;;;2518509;54;21087;-71
2021/11/25 07:53:39;;;;;;;20.30;10.70;;;2.80;69.50;;;;;;2312582;54;21440;-71
2021/11/25 07:57:00;;;;;;;20.08;10.98;;;2.80;69.60;;;;;;2563825;53;20959;-71
2021/11/25 07:59:30;;;;;;;18.98;9.90;;;2.90;69.50;;;;;;2307434;54;20970;-70
2021/11/25 08:01:56;;;;;;;19.30;10.45;;;2.90;69.50;;;;;;2310702;54;20925;-72
2021/11/25 08:04:23;;;;;;;20.40;10.57;;;3.00;69.60;;;;;;2300162;54;20947;-69
2021/11/25 08:06:50;;;;;;;20.88;10.07;;;3.00;69.70;;;;;;2324347;54;20959;-69
2021/11/25 08:09:16;;;;;;;23.77;11.52;;;3.00;69.70;;;;;;2319898;54;20981;-69
2021/11/25 08:11:43;;;;;;;22.77;10.88;;;3.10;69.70;;;;;;2554372;53;20987;-71
2021/11/25 08:14:09;;;;;;;20.23;10.82;;;3.10;69.70;;;;;;2548543;53;22019;-70
2021/11/25 08:16:35;;;;;;;24.02;11.60;;;3.20;69.80;;;;;;2314847;54;20983;-71
2021/11/25 08:19:02;;;;;;;23.00;11.48;;;3.20;69.70;;;;;;2297193;54;20934;-72
2021/11/25 08:21:28;;;;;;;21.50;10.25;;;3.30;69.80;;;;;;2311908;54;21035;-68
2021/11/25 08:23:55;;;;;;;19.20;10.43;;;3.30;69.80;;;;;;2532404;53;20968;-70
2021/11/25 08:26:52;;;;;;;21.35;11.00;;;3.30;69.80;;;;;;2318462;54;21069;-70
2021/11/25 08:29:33;;;;;;;21.95;10.82;;;3.40;69.70;;;;;;2305430;54;20995;-70
2021/11/25 08:32:23;;;;;;;22.35;11.43;;;3.40;69.70;;;;;;2309364;54;21039;-69
2021/11/25 08:34:50;;;;;;;18.92;10.15;;;3.50;69.80;;;;;;2307350;54;21039;-70
2021/11/25 08:37:16;;;;;;;20.67;11.05;;;3.50;69.90;;;;;;2306182;54;21010;-70
2021/11/25 08:39:44;;;;;;;20.25;11.43;;;3.50;70.00;;;;;;2309260;54;21059;-69
2021/11/25 08:42:19;;;;;;;22.80;11.40;;;3.60;70.00;;;;;;2315646;54;21014;-68
2021/11/25 08:44:46;;;;;;;20.25;11.18;;;3.60;70.00;;;;;;2295339;55;21034;-69
2021/11/25 08:47:13;;;;;;;21.27;10.55;;;3.70;70.10;;;;;;2319384;54;21014;-70
2021/11/25 08:49:40;;;;;;;17.83;9.00;;;3.70;70.10;;;;;;2545389;54;21003;-70
2021/11/25 08:52:06;;;;;;;23.45;11.40;;;3.80;70.20;;;;;;2544500;53;21036;-70
2021/11/25 08:54:32;;;;;;;30.95;15.13;;;3.80;70.10;;;;;;2320992;54;21018;-69
2021/11/25 08:57:23;;;;;;;28.42;15.20;;;3.90;70.20;;;;;;2311910;54;21054;-69
2021/11/25 08:59:49;;;;;;;34.92;17.37;;;3.90;70.10;;;;;;2314694;54;20959;-69
2021/11/25 09:02:17;;;;;;;27.05;13.90;;;4.00;70.30;;;;;;2303093;54;22053;-69
2021/11/25 09:04:43;;;;;;;26.25;13.70;;;4.00;70.20;;;;;;2315113;54;20963;-70
2021/11/25 09:07:09;;;;;;;23.92;13.68;;;4.10;70.20;;;;;;2314249;54;20999;-69
2021/11/25 09:09:38;;;;;;;27.23;13.85;;;4.10;70.00;;;;;;2316419;54;21411;-70
2021/11/25 09:12:05;;;;;;;26.42;14.50;;;4.10;69.90;;;;;;2319008;55;21593;-69
2021/11/25 09:14:31;;;;;;;21.92;12.37;;;4.20;70.00;;;;;;2321081;54;20992;-70
2021/11/25 09:17:00;;;;;;;27.30;13.60;;;4.20;70.00;;;;;;2313926;54;21056;-69
2021/11/25 09:19:27;;;;;;;36.10;19.95;;;4.30;70.10;;;;;;2314163;54;21054;-70
2021/11/25 09:21:55;;;;;;;26.23;15.55;;;4.30;70.40;;;;;;2305263;54;21425;-69
2021/11/25 09:24:22;;;;;;;29.10;15.95;;;4.30;70.30;;;;;;2316516;54;20928;-71
2021/11/25 09:26:50;;;;;;;26.55;13.77;;;4.40;70.30;;;;;;2329797;54;21008;-70
2021/11/25 09:29:22;;;;;;;25.55;13.70;;;4.40;70.20;;;;;;2546992;53;21439;-69
2021/11/25 09:31:48;;;;;;;22.52;13.48;;;4.40;70.30;;;;;;2315199;54;21040;-69
2021/11/25 09:34:14;;;;;;;28.73;14.85;;;4.50;70.30;;;;;;2306647;54;21013;-70
2021/11/25 09:36:41;;;;;;;29.58;16.62;;;4.50;70.40;;;;;;2301336;54;21198;-69
2021/11/25 09:39:08;;;;;;;26.33;14.68;;;4.60;70.40;;;;;;2549507;53;21001;-69
2021/11/25 09:41:37;;;;;;;24.63;13.77;;;4.60;70.30;;;;;;2314434;54;21007;-69
2021/11/25 09:44:04;;;;;;;24.98;13.57;;;4.70;70.30;;;;;;2297188;54;21085;-70
2021/11/25 09:46:30;;;;;;;26.35;14.27;;;4.70;70.40;;;;;;2319316;54;20972;-70
2021/11/25 09:48:57;;;;;;;26.77;14.68;;;4.70;70.30;;;;;;2552104;53;21958;-67
2021/11/25 09:51:25;;;;;;;20.67;11.77;;;4.80;70.50;;;;;;2542394;54;21003;-69
2021/11/25 09:53:52;;;;;;;19.62;10.77;;;4.80;70.50;;;;;;2545994;52;20980;-67
2021/11/25 09:56:36;;;;;;;20.33;10.85;;;4.90;70.60;;;;;;2303500;54;21522;-69
2021/11/25 09:59:05;;;;;;;21.42;10.85;;;4.90;70.40;;;;;;2315507;54;21408;-67
2021/11/25 10:01:33;;;;;;;20.65;10.68;;;4.90;70.50;;;;;;2329666;54;20967;-67
2021/11/25 10:04:01;;;;;;;21.30;9.95;;;5.00;70.60;;;;;;2303163;54;20962;-67
2021/11/25 10:06:33;;;;;;;18.35;9.95;;;5.00;70.60;;;;;;2319098;54;20948;-67
2021/11/25 10:09:00;;;;;;;18.70;9.93;;;5.10;70.70;;;;;;2550303;53;21026;-67
2021/11/25 10:11:39;;;;;;;17.37;9.98;;;5.10;70.60;;;;;;2545151;52;21090;-67
2021/11/25 10:14:08;;;;;;;17.50;9.50;;;5.20;70.60;;;;;;2291153;55;20950;-67
2021/11/25 10:16:55;;;;;;;19.90;9.75;;;5.20;70.60;;;;;;2301912;54;20988;-67
2021/11/25 10:19:27;;;;;;;19.83;10.23;;;5.20;70.30;;;;;;2314275;54;20960;-67
2021/11/25 10:22:32;;;;;;;20.85;11.12;;;5.20;70.40;;;;;;2318880;54;20976;-67
2021/11/25 10:25:01;;;;;;;20.90;10.85;;;5.30;70.20;;;;;;2304293;54;21091;-67
2021/11/25 10:27:27;;;;;;;20.17;10.57;;;5.30;70.40;;;;;;2318645;54;20957;-67
2021/11/25 10:30:12;;;;;;;22.55;11.35;;;5.30;70.40;;;;;;2541635;54;21020;-67
2021/11/25 10:32:39;;;;;;;17.45;9.38;;;5.40;70.40;;;;;;2575638;53;20976;-68
2021/11/25 10:35:22;;;;;;;18.85;9.63;;;5.40;70.60;;;;;;2318306;54;21042;-66
2021/11/25 10:41:13;;;;;;;22.60;10.68;;;5.50;70.60;;;;;;2324729;54;21145;-67
2021/11/25 10:43:42;;;;;;;19.45;9.73;;;5.50;70.50;;;;;;2329420;54;21483;-66
2021/11/25 10:46:09;;;;;;;20.20;9.90;;;5.50;70.50;;;;;;2312186;54;21034;-66
2021/11/25 10:48:39;;;;;;;17.75;9.52;;;5.50;70.40;;;;;;2542258;52;20967;-66
2021/11/25 10:51:29;;;;;;;17.87;9.43;;;5.60;70.50;;;;;;2545670;53;21483;-67
2021/11/25 10:54:09;;;;;;;23.00;10.77;;;5.60;70.10;;;;;;2313279;54;20983;-67
2021/11/25 10:56:56;;;;;;;22.10;10.40;;;5.60;70.20;;;;;;2324453;54;21047;-67
2021/11/25 10:59:36;;;;;;;20.30;9.90;;;5.70;70.20;;;;;;2550926;53;21330;-67
2021/11/25 11:02:03;;;;;;;19.10;9.52;;;5.70;70.20;;;;;;2309750;54;21917;-66
2021/11/25 11:04:31;;;;;;;18.73;9.85;;;5.70;70.30;;;;;;2311055;54;21003;-66
2021/11/25 11:06:57;;;;;;;18.87;9.85;;;5.70;70.30;;;;;;2319892;54;21136;-67
2021/11/25 11:09:33;;;;;;;19.37;10.23;;;5.70;70.20;;;;;;2528303;53;20959;-66
2021/11/25 11:12:26;;;;;;;20.80;10.85;;;5.70;70.10;;;;;;2312058;54;21015;-67
2021/11/25 11:14:56;;;;;;;20.40;10.13;;;5.70;70.10;;;;;;2321514;54;20972;-67
2021/11/25 11:17:33;;;;;;;22.00;11.05;;;5.80;70.20;;;;;;2303761;54;20969;-67
2021/11/25 11:20:16;;;;;;;18.62;9.43;;;5.80;70.10;;;;;;2523228;54;21000;-65
2021/11/25 11:22:53;;;;;;;20.98;10.70;;;5.80;69.80;;;;;;2287232;55;20989;-66
2021/11/25 11:25:22;;;;;;;23.83;10.95;;;5.80;70.00;;;;;;2317662;54;21038;-66
2021/11/25 11:27:50;;;;;;;23.00;11.30;;;5.80;70.10;;;;;;2312988;54;21018;-66
2021/11/25 11:30:17;;;;;;;19.52;9.50;;;5.80;70.10;;;;;;2322478;54;20970;-65
2021/11/25 11:32:44;;;;;;;21.25;10.98;;;5.60;70.00;;;;;;2317989;54;21560;-67
2021/11/25 11:35:10;;;;;;;21.62;11.30;;;5.90;70.30;;;;;;2316880;54;21502;-67
2021/11/25 11:37:39;;;;;;;18.48;10.23;;;5.90;70.30;;;;;;2311287;54;21035;-67
2021/11/25 11:40:08;;;;;;;21.30;10.50;;;5.90;70.30;;;;;;2319739;54;20987;-67
2021/11/25 11:42:48;;;;;;;19.67;9.57;;;5.90;70.20;;;;;;2300877;54;20974;-67
2021/11/25 11:45:15;;;;;;;25.35;13.10;;;6.00;70.30;;;;;;2405068;54;1464982;-67
2021/11/25 11:47:42;;;;;;;19.87;10.20;;;6.00;70.40;;;;;;2320918;54;20958;-66
2021/11/25 11:50:10;;;;;;;20.25;10.95;;;6.00;70.30;;;;;;2318136;54;21039;-67
2021/11/25 11:52:56;;;;;;;20.73;10.90;;;6.00;70.20;;;;;;2302018;54;20996;-67
2021/11/25 11:55:38;;;;;;;22.37;11.07;;;6.00;69.90;;;;;;2321542;54;21027;-67
2021/11/25 11:58:36;;;;;;;22.52;11.20;;;6.10;70.20;;;;;;2539728;54;21529;-66
2021/11/25 12:01:20;;;;;;;21.15;10.65;;;6.10;70.00;;;;;;2547280;53;21433;-67
2021/11/25 12:04:32;;;;;;;19.45;10.40;;;6.10;70.00;;;;;;2315064;54;20966;-67
2021/11/25 12:06:58;;;;;;;20.17;9.82;;;6.10;70.00;;;;;;2575692;53;20975;-66
2021/11/25 12:09:30;;;;;;;16.85;9.43;;;6.10;70.20;;;;;;2301767;54;21095;-67
2021/11/25 12:12:00;;;;;;;21.33;10.63;;;6.20;70.30;;;;;;2300077;53;20981;-67
2021/11/25 12:14:29;;;;;;;20.20;10.52;;;6.20;70.30;;;;;;2314779;53;20994;-67
2021/11/25 12:17:08;;;;;;;20.62;11.23;;;6.20;70.30;;;;;;2296428;53;21015;-66
2021/11/25 12:19:42;;;;;;;17.35;9.75;;;6.20;70.40;;;;;;2279700;54;20987;-67
2021/11/25 12:22:18;;;;;;;19.87;11.00;;;6.30;70.30;;;;;;2295322;55;21633;-66
2021/11/25 12:24:55;;;;;;;19.65;10.52;;;6.40;70.30;;;;;;2303960;54;21018;-67
2021/11/25 12:27:32;;;;;;;21.75;11.38;;;6.30;70.30;;;;;;2560172;53;21016;-67
2021/11/25 12:30:26;;;;;;;22.58;11.40;;;6.30;70.00;;;;;;2327498;54;21121;-67
2021/11/25 12:32:55;;;;;;;25.25;11.57;;;6.30;69.60;;;;;;2318199;54;21031;-67
2021/11/25 12:35:38;;;;;;;26.75;11.88;;;6.30;69.80;;;;;;2309115;54;20939;-67
2021/11/25 12:38:14;;;;;;;22.80;11.68;;;6.30;69.40;;;;;;2321543;54;21090;-66
2021/11/25 12:40:57;;;;;;;26.10;12.48;;;6.30;69.40;;;;;;2294077;54;22020;-67
2021/11/25 12:43:25;;;;;;;24.77;12.02;;;6.30;69.30;;;;;;2295316;54;21025;-67
2021/11/25 12:45:56;;;;;;;26.20;12.05;;;6.20;69.30;;;;;;2315862;54;20966;-67
2021/11/25 12:48:30;;;;;;;24.10;12.18;;;6.20;69.40;;;;;;2318652;54;21030;-67
2021/11/25 12:50:59;;;;;;;22.23;11.45;;;6.20;69.40;;;;;;2548423;54;21103;-67
2021/11/25 12:54:00;;;;;;;22.20;11.35;;;6.20;69.50;;;;;;2548355;54;20998;-66
2021/11/25 12:56:30;;;;;;;27.33;13.60;;;6.20;69.20;;;;;;2318358;54;21122;-67
2021/11/25 12:59:07;;;;;;;25.75;13.45;;;6.20;69.60;;;;;;2318682;54;20944;-66
2021/11/25 13:01:45;;;;;;;28.65;13.35;;;6.20;69.60;;;;;;2314477;54;21769;-67
2021/11/25 13:04:16;;;;;;;26.10;12.25;;;6.20;69.50;;;;;;2315936;54;20936;-67
2021/11/25 13:06:50;;;;;;;25.10;12.43;;;6.20;69.60;;;;;;2547390;53;21734;-67
2021/11/25 13:09:38;;;;;;;27.33;13.62;;;6.20;69.70;;;;;;2312720;54;21005;-67
2021/11/25 13:12:06;;;;;;;25.45;11.10;;;6.20;69.40;;;;;;2317029;54;20977;-67
2021/11/25 13:14:33;;;;;;;26.25;12.50;;;6.20;69.60;;;;;;2332192;54;21006;-66
2021/11/25 13:17:03;;;;;;;21.77;11.12;;;6.20;69.60;;;;;;2547048;54;20989;-66
2021/11/25 13:19:33;;;;;;;24.25;11.77;;;6.20;69.60;;;;;;2314454;54;21072;-66
2021/11/25 13:22:04;;;;;;;21.73;11.45;;;6.20;69.70;;;;;;2545454;53;20951;-66
2021/11/25 13:24:32;;;;;;;23.17;11.70;;;6.20;69.70;;;;;;2315735;54;21047;-67
2021/11/25 13:27:24;;;;;;;23.60;12.35;;;6.20;69.60;;;;;;2312023;54;21030;-67
2021/11/25 13:29:57;;;;;;;25.08;11.38;;;6.20;69.40;;;;;;2316001;54;21374;-66
2021/11/25 13:32:30;;;;;;;27.05;12.57;;;6.20;69.60;;;;;;2315377;54;21949;-67
2021/11/25 13:34:58;;;;;;;25.23;11.68;;;6.00;69.40;;;;;;2317803;54;21080;-67
2021/11/25 13:37:40;;;;;;;27.02;12.40;;;6.20;69.50;;;;;;2519939;54;21043;-67
2021/11/25 13:40:08;;;;;;;26.27;12.60;;;6.30;69.50;;;;;;2318813;54;21063;-66
2021/11/25 13:42:41;;;;;;;23.08;11.30;;;6.30;69.60;;;;;;2315194;54;21039;-67
2021/11/25 13:45:09;;;;;;;24.50;11.90;;;6.30;69.60;;;;;;2315315;54;20968;-66
2021/11/25 13:47:36;;;;;;;24.30;12.32;;;6.20;69.50;;;;;;2323084;54;21022;-68
2021/11/25 13:50:13;;;;;;;26.90;12.40;;;6.30;69.50;;;;;;2323228;54;20888;-67
2021/11/25 13:52:55;;;;;;;22.67;11.35;;;6.30;69.40;;;;;;2304880;55;21049;-67
2021/11/25 13:55:25;;;;;;;25.17;11.85;;;6.20;69.20;;;;;;2315850;54;20951;-67
2021/11/25 13:57:51;;;;;;;25.33;12.70;;;6.20;69.30;;;;;;2299253;54;21034;-67
2021/11/25 14:00:26;;;;;;;22.20;11.07;;;6.30;69.50;;;;;;2320555;54;20975;-67
2021/11/25 14:02:52;;;;;;;26.08;11.60;;;6.20;69.30;;;;;;2318259;54;20957;-66
2021/11/25 14:05:19;;;;;;;25.05;11.77;;;6.20;69.30;;;;;;2547056;54;21120;-67
2021/11/25 14:07:45;;;;;;;22.67;11.57;;;6.20;69.20;;;;;;2318327;54;21027;-66
2021/11/25 14:10:24;;;;;;;22.00;11.18;;;6.20;69.20;;;;;;2542453;53;21004;-67
2021/11/25 14:12:51;;;;;;;24.42;11.75;;;6.20;69.10;;;;;;2317894;54;21039;-66
2021/11/25 14:15:30;;;;;;;22.02;10.30;;;6.20;69.30;;;;;;2546714;54;20949;-67
2021/11/25 14:17:56;;;;;;;23.65;11.68;;;6.20;69.20;;;;;;2559592;53;21132;-67
2021/11/25 14:20:24;;;;;;;24.75;12.23;;;6.20;69.30;;;;;;2321261;54;20989;-67
2021/11/25 14:22:51;;;;;;;23.35;11.02;;;6.20;69.30;;;;;;2544155;54;20972;-66
2021/11/25 14:25:42;;;;;;;24.12;12.18;;;6.20;69.30;;;;;;2319719;54;21606;-66